createdAt,value
2023-04-21T00:01:22.715Z,18.80
2023-04-21T00:03:50.178Z,20.40
2023-04-21T00:06:21.860Z,19.50
2023-04-21T00:08:48.820Z,17.20
2023-04-21T00:11:15.614Z,19.10
2023-04-21T00:13:42.165Z,21.10
2023-04-21T00:16:08.633Z,19.00
2023-04-21T00:18:35.178Z,18.20
2023-04-21T00:21:01.775Z,17.70
2023-04-21T00:23:28.189Z,19.40
2023-04-21T00:25:54.803Z,19.30
2023-04-21T00:28:21.326Z,15.00
2023-04-21T00:30:47.813Z,20.90
2023-04-21T00:33:14.337Z,16.00
2023-04-21T00:35:40.813Z,18.30
2023-04-21T00:38:07.265Z,20.70
2023-04-21T00:40:33.693Z,15.60
2023-04-21T00:43:00.188Z,18.80
2023-04-21T00:45:26.872Z,19.40
2023-04-21T00:47:53.468Z,20.60
2023-04-21T00:50:20.178Z,17.40
2023-04-21T00:52:46.690Z,16.30
2023-04-21T00:55:13.636Z,16.00
2023-04-21T00:57:40.148Z,23.80
2023-04-21T01:00:08.329Z,19.00
2023-04-21T01:02:36.683Z,16.30
2023-04-21T01:05:06.490Z,18.00
2023-04-21T01:07:35.774Z,18.10
2023-04-21T01:10:02.825Z,15.60
2023-04-21T01:12:29.536Z,17.80
2023-04-21T01:14:56.085Z,15.60
2023-04-21T01:17:24.969Z,18.50
2023-04-21T01:19:52.773Z,22.30
2023-04-21T01:22:19.351Z,20.30
2023-04-21T01:24:46.790Z,17.70
2023-04-21T01:27:14.518Z,17.90
2023-04-21T01:29:42.161Z,16.70
2023-04-21T01:32:10.194Z,15.20
2023-04-21T01:34:40.164Z,20.90
2023-04-21T01:37:08.028Z,17.00
2023-04-21T01:39:39.950Z,17.70
2023-04-21T01:42:06.729Z,18.60
2023-04-21T01:44:33.556Z,16.50
2023-04-21T01:47:00.150Z,19.30
2023-04-21T01:49:26.823Z,20.50
2023-04-21T01:51:53.487Z,17.80
2023-04-21T01:54:20.004Z,18.90
2023-04-21T01:56:46.628Z,15.40
2023-04-21T01:59:13.229Z,17.70
2023-04-21T02:01:39.694Z,21.00
2023-04-21T02:04:06.629Z,18.90
2023-04-21T02:06:33.284Z,22.00
2023-04-21T02:08:59.817Z,18.40
2023-04-21T02:11:26.354Z,18.60
2023-04-21T02:13:53.565Z,21.40
2023-04-21T02:16:20.123Z,17.20
2023-04-21T02:18:47.722Z,17.20
2023-04-21T02:21:15.029Z,18.40
2023-04-21T02:23:41.516Z,20.60
2023-04-21T02:26:08.435Z,20.90
2023-04-21T02:28:35.029Z,18.70
2023-04-21T02:31:01.774Z,19.60
2023-04-21T02:33:29.042Z,23.60
2023-04-21T02:35:55.602Z,18.90
2023-04-21T02:38:22.145Z,27.90
2023-04-21T02:40:49.972Z,18.20
2023-04-21T02:43:16.842Z,20.00
2023-04-21T02:45:43.280Z,19.50
2023-04-21T02:48:10.114Z,19.00
2023-04-21T02:50:37.360Z,20.50
2023-04-21T02:53:04.204Z,18.30
2023-04-21T02:55:30.711Z,20.10
2023-04-21T02:57:57.250Z,24.90
2023-04-21T03:00:23.774Z,21.70
2023-04-21T03:02:51.703Z,26.00
2023-04-21T03:05:18.484Z,23.80
2023-04-21T03:07:45.552Z,23.40
2023-04-21T03:10:12.464Z,19.60
2023-04-21T03:12:38.943Z,23.90
2023-04-21T03:15:05.770Z,20.60
2023-04-21T03:17:33.259Z,31.80
2023-04-21T03:20:00.134Z,25.20
2023-04-21T03:22:26.810Z,21.30
2023-04-21T03:24:53.357Z,25.30
2023-04-21T03:27:20.035Z,23.00
2023-04-21T03:29:46.537Z,21.90
2023-04-21T03:32:13.328Z,18.70
2023-04-21T03:34:40.381Z,22.90
2023-04-21T03:37:07.319Z,23.10
2023-04-21T03:39:33.843Z,23.70
2023-04-21T03:42:00.825Z,21.20
2023-04-21T03:44:28.124Z,24.30
2023-04-21T03:46:54.846Z,26.40
2023-04-21T03:49:21.651Z,23.60
2023-04-21T03:51:48.232Z,21.90
2023-04-21T03:54:14.938Z,20.80
2023-04-21T03:56:41.497Z,21.90
2023-04-21T03:59:11.369Z,20.80
2023-04-21T04:01:37.916Z,21.50
2023-04-21T04:04:04.726Z,20.10
2023-04-21T04:06:31.973Z,18.90
2023-04-21T04:08:58.376Z,22.50
2023-04-21T04:11:25.010Z,25.00
2023-04-21T04:13:51.516Z,20.30
2023-04-21T04:16:18.139Z,21.70
2023-04-21T04:18:45.046Z,19.90
2023-04-21T04:21:11.490Z,18.90
2023-04-21T04:23:38.254Z,17.70
2023-04-21T04:26:04.915Z,18.10
2023-04-21T04:28:31.514Z,19.80
2023-04-21T04:30:59.939Z,20.20
2023-04-21T04:33:26.633Z,18.90
2023-04-21T04:35:53.979Z,21.20
2023-04-21T04:38:22.228Z,17.70
2023-04-21T04:40:54.976Z,20.70
2023-04-21T04:43:21.489Z,18.20
2023-04-21T04:45:47.953Z,24.10
2023-04-21T04:48:14.365Z,18.90
2023-04-21T04:50:40.779Z,21.00
2023-04-21T04:53:07.249Z,17.60
2023-04-21T04:55:33.773Z,17.70
2023-04-21T04:58:01.200Z,18.00
2023-04-21T05:00:28.134Z,18.90
2023-04-21T05:02:55.134Z,18.90
2023-04-21T05:05:21.612Z,16.40
2023-04-21T05:07:48.073Z,15.80
2023-04-21T05:10:14.504Z,20.10
2023-04-21T05:12:41.001Z,20.70
2023-04-21T05:15:07.752Z,19.10
2023-04-21T05:17:35.276Z,18.00
2023-04-21T05:20:03.694Z,18.60
2023-04-21T05:22:30.137Z,16.20
2023-04-21T05:24:56.601Z,17.90
2023-04-21T05:27:24.047Z,18.10
2023-04-21T05:29:50.531Z,18.30
2023-04-21T05:32:18.073Z,16.50
2023-04-21T05:34:44.500Z,17.60
2023-04-21T05:37:11.903Z,19.30
2023-04-21T05:39:39.406Z,19.10
2023-04-21T05:42:06.050Z,18.20
2023-04-21T05:44:32.634Z,18.80
2023-04-21T05:46:58.975Z,17.90
2023-04-21T05:49:25.429Z,20.90
2023-04-21T05:51:53.238Z,17.80
2023-04-21T05:54:19.889Z,20.30
2023-04-21T05:56:47.693Z,17.50
2023-04-21T05:59:14.147Z,17.80
2023-04-21T06:01:40.541Z,15.70
2023-04-21T06:04:07.196Z,17.80
2023-04-21T06:06:33.846Z,20.10
2023-04-21T06:09:04.900Z,18.80
2023-04-21T06:11:32.809Z,16.70
2023-04-21T06:14:00.452Z,17.80
2023-04-21T06:16:27.390Z,18.60
2023-04-21T06:18:54.132Z,25.70
2023-04-21T06:21:20.547Z,20.60
2023-04-21T06:23:48.187Z,26.90
2023-04-21T06:26:14.672Z,15.90
2023-04-21T06:28:41.097Z,19.30
2023-04-21T06:31:09.280Z,21.20
2023-04-21T06:33:36.189Z,22.00
2023-04-21T06:36:02.778Z,17.50
2023-04-21T06:38:29.387Z,18.60
2023-04-21T06:40:55.906Z,15.70
2023-04-21T06:43:22.436Z,14.60
2023-04-21T06:45:49.025Z,15.20
2023-04-21T06:48:15.991Z,12.40
2023-04-21T06:50:44.051Z,19.50
2023-04-21T06:53:11.044Z,12.90
2023-04-21T06:55:37.474Z,12.50
2023-04-21T06:58:04.064Z,11.60
2023-04-21T07:00:30.530Z,12.40
2023-04-21T07:02:56.960Z,8.70
2023-04-21T07:05:23.568Z,11.40
2023-04-21T07:07:50.179Z,11.00
2023-04-21T07:10:19.258Z,10.10
2023-04-21T07:12:45.798Z,12.80
2023-04-21T07:15:12.644Z,13.40
2023-04-21T07:17:39.608Z,12.00
2023-04-21T07:20:07.208Z,8.60
2023-04-21T07:22:35.412Z,8.50
2023-04-21T07:25:07.918Z,8.80
2023-04-21T07:27:36.365Z,7.50
2023-04-21T07:30:03.781Z,10.10
2023-04-21T07:32:30.653Z,10.40
2023-04-21T07:34:58.062Z,9.00
2023-04-21T07:37:24.911Z,14.80
2023-04-21T07:39:51.677Z,9.50
2023-04-21T07:42:18.205Z,9.20
2023-04-21T07:44:44.829Z,9.90
2023-04-21T07:47:11.349Z,10.00
2023-04-21T07:49:38.016Z,8.10
2023-04-21T07:52:04.579Z,7.40
2023-04-21T07:54:31.922Z,8.70
2023-04-21T07:56:58.915Z,11.40
2023-04-21T07:59:25.514Z,9.60
2023-04-21T08:01:52.057Z,9.00
2023-04-21T08:04:18.935Z,9.20
2023-04-21T08:06:46.073Z,12.70
2023-04-21T08:09:12.567Z,17.70
2023-04-21T08:11:39.257Z,9.30
2023-04-21T08:14:06.398Z,14.50
2023-04-21T08:16:33.056Z,12.00
2023-04-21T08:18:59.958Z,15.70
2023-04-21T08:21:26.427Z,11.60
2023-04-21T08:23:54.699Z,10.00
2023-04-21T08:26:23.039Z,11.60
2023-04-21T08:28:51.302Z,11.00
2023-04-21T08:31:18.676Z,10.50
2023-04-21T08:33:57.849Z,12.70
2023-04-21T08:36:29.987Z,12.10
2023-04-21T08:38:57.455Z,10.00
2023-04-21T08:41:24.637Z,10.40
2023-04-21T08:43:51.220Z,8.00
2023-04-21T08:46:18.408Z,13.00
2023-04-21T08:48:46.084Z,10.20
2023-04-21T08:51:14.296Z,9.20
2023-04-21T08:53:40.980Z,9.40
2023-04-21T08:56:11.163Z,7.70
2023-04-21T08:58:38.641Z,9.30
2023-04-21T09:01:05.129Z,14.50
2023-04-21T09:03:31.728Z,10.30
2023-04-21T09:06:04.788Z,8.10
2023-04-21T09:08:32.175Z,9.30
2023-04-21T09:11:00.629Z,8.50
2023-04-21T09:13:31.243Z,16.60
2023-04-21T09:15:58.308Z,10.60
2023-04-21T09:18:25.809Z,8.60
2023-04-21T09:21:05.600Z,8.10
2023-04-21T09:23:38.482Z,8.80
2023-04-21T09:26:05.011Z,8.30
2023-04-21T09:28:32.362Z,8.00
2023-04-21T09:30:58.822Z,11.10
2023-04-21T09:33:32.274Z,10.00
2023-04-21T09:36:02.083Z,8.40
2023-04-21T09:38:28.635Z,6.30
2023-04-21T09:40:58.675Z,11.70
2023-04-21T09:43:25.617Z,7.40
2023-04-21T09:45:52.984Z,13.20
2023-04-21T09:48:22.394Z,12.10
2023-04-21T09:53:20.148Z,8.10
2023-04-21T09:55:48.857Z,7.70
2023-04-21T09:58:17.013Z,12.20
2023-04-21T10:00:43.785Z,13.60
2023-04-21T10:03:11.413Z,9.70
2023-04-21T10:05:42.189Z,5.10
2023-04-21T10:08:10.785Z,9.20
2023-04-21T10:10:37.963Z,10.50
2023-04-21T10:13:04.505Z,6.40
2023-04-21T10:15:35.378Z,8.80
2023-04-21T10:18:17.340Z,9.80
2023-04-21T10:21:10.335Z,6.30
2023-04-21T10:23:44.206Z,9.50
2023-04-21T10:26:10.955Z,10.30
2023-04-21T10:28:40.731Z,9.40
2023-04-21T10:31:19.765Z,10.80
2023-04-21T10:34:04.913Z,9.50
2023-04-21T10:36:34.245Z,5.80
2023-04-21T10:39:03.036Z,4.70
2023-04-21T10:41:30.658Z,6.40
2023-04-21T10:43:57.973Z,6.70
2023-04-21T10:46:31.574Z,8.70
2023-04-21T10:49:05.066Z,7.00
2023-04-21T10:51:32.452Z,6.70
2023-04-21T10:53:58.975Z,5.30
2023-04-21T10:56:25.529Z,5.00
2023-04-21T10:58:52.306Z,9.00
2023-04-21T11:01:18.964Z,7.10
2023-04-21T11:03:45.852Z,7.40
2023-04-21T11:06:17.363Z,6.80
2023-04-21T11:08:56.618Z,4.70
2023-04-21T11:11:23.602Z,7.60
2023-04-21T11:13:51.962Z,7.70
2023-04-21T11:16:19.592Z,7.10
2023-04-21T11:18:46.128Z,4.30
2023-04-21T11:21:17.187Z,7.70
2023-04-21T11:23:53.811Z,5.20
2023-04-21T11:26:33.950Z,6.20
2023-04-21T11:29:01.402Z,5.70
2023-04-21T11:31:28.618Z,7.40
2023-04-21T11:33:55.388Z,5.20
2023-04-21T11:36:22.186Z,11.30
2023-04-21T11:38:48.620Z,12.70
2023-04-21T11:41:22.300Z,6.00
2023-04-21T11:43:49.571Z,6.50
2023-04-21T11:46:17.567Z,8.10
2023-04-21T11:48:44.617Z,4.30
2023-04-21T11:51:14.866Z,5.60
2023-04-21T11:53:41.679Z,6.90
2023-04-21T11:56:08.779Z,7.30
2023-04-21T11:58:35.221Z,11.30
2023-04-21T12:01:08.732Z,7.10
2023-04-21T12:03:35.666Z,5.30
2023-04-21T12:06:02.699Z,4.80
2023-04-21T12:08:30.636Z,5.40
2023-04-21T12:10:58.680Z,6.70
2023-04-21T12:13:28.906Z,6.70
2023-04-21T12:15:55.501Z,9.60
2023-04-21T12:18:26.423Z,7.20
2023-04-21T12:20:52.838Z,6.80
2023-04-21T12:23:19.720Z,6.50
2023-04-21T12:25:46.408Z,5.80
2023-04-21T12:28:15.099Z,6.50
2023-04-21T12:30:42.508Z,8.50
2023-04-21T12:33:10.114Z,7.30
2023-04-21T12:35:36.816Z,6.30
2023-04-21T12:38:03.396Z,4.70
2023-04-21T12:40:30.092Z,8.60
2023-04-21T12:42:56.554Z,5.00
2023-04-21T12:45:23.124Z,8.80
2023-04-21T12:47:49.884Z,4.70
2023-04-21T12:50:16.453Z,8.30
2023-04-21T12:52:43.117Z,4.80
2023-04-21T12:55:09.894Z,3.70
2023-04-21T12:57:36.363Z,7.00
2023-04-21T13:00:03.750Z,8.20
2023-04-21T13:02:36.365Z,9.10
2023-04-21T13:05:06.507Z,5.40
2023-04-21T13:07:33.504Z,5.30
2023-04-21T13:10:00.224Z,3.90
2023-04-21T13:12:27.047Z,5.90
2023-04-21T13:14:53.590Z,4.70
2023-04-21T13:17:20.416Z,6.70
2023-04-21T13:19:46.992Z,9.10
2023-04-21T13:22:13.432Z,8.40
2023-04-21T13:24:39.912Z,4.50
2023-04-21T13:27:06.780Z,6.60
2023-04-21T13:29:34.292Z,4.50
2023-04-21T13:32:01.684Z,4.60
2023-04-21T13:34:28.728Z,3.50
2023-04-21T13:36:55.487Z,7.30
2023-04-21T13:39:22.059Z,4.00
2023-04-21T13:41:48.490Z,3.40
2023-04-21T13:44:15.130Z,4.50
2023-04-21T13:46:41.984Z,4.80
2023-04-21T13:49:08.580Z,9.00
2023-04-21T13:51:35.166Z,6.90
2023-04-21T13:54:01.653Z,8.10
2023-04-21T13:56:28.230Z,5.60
2023-04-21T13:58:55.304Z,3.90
2023-04-21T14:01:21.985Z,4.10
2023-04-21T14:03:48.815Z,5.50
2023-04-21T14:06:15.954Z,4.60
2023-04-21T14:08:42.566Z,4.10
2023-04-21T14:11:09.033Z,3.40
2023-04-21T14:13:42.093Z,10.80
2023-04-21T14:16:18.804Z,6.50
2023-04-21T14:18:46.493Z,7.60
2023-04-21T14:21:13.095Z,6.60
2023-04-21T14:23:39.649Z,11.70
2023-04-21T14:26:06.293Z,4.90
2023-04-21T14:28:32.882Z,9.30
2023-04-21T14:30:59.455Z,4.10
2023-04-21T14:33:26.106Z,5.00
2023-04-21T14:35:52.578Z,7.90
2023-04-21T14:38:19.168Z,5.50
2023-04-21T14:40:45.934Z,6.90
2023-04-21T14:43:12.466Z,6.20
2023-04-21T14:45:40.418Z,6.60
2023-04-21T14:48:07.143Z,6.40
2023-04-21T14:50:33.694Z,8.20
2023-04-21T14:53:00.624Z,6.50
2023-04-21T14:55:27.101Z,8.20
2023-04-21T14:57:53.591Z,5.50
2023-04-21T15:00:22.549Z,18.40
2023-04-21T15:02:49.114Z,7.60
2023-04-21T15:05:15.807Z,5.30
2023-04-21T15:07:42.380Z,7.10
2023-04-21T15:10:09.184Z,7.50
2023-04-21T15:12:36.721Z,5.90
2023-04-21T15:15:03.668Z,6.10
2023-04-21T15:17:30.151Z,11.90
2023-04-21T15:19:56.660Z,7.90
2023-04-21T15:22:23.221Z,8.70
2023-04-21T15:24:50.673Z,4.40
2023-04-21T15:27:19.005Z,5.20
2023-04-21T15:29:45.817Z,4.00
2023-04-21T15:32:12.979Z,5.00
2023-04-21T15:34:39.645Z,6.90
2023-04-21T15:37:06.225Z,8.20
2023-04-21T15:39:32.746Z,7.80
2023-04-21T15:41:59.424Z,7.00
2023-04-21T15:44:26.004Z,5.80
2023-04-21T15:46:52.922Z,5.80
2023-04-21T15:49:20.007Z,3.50
2023-04-21T15:51:46.620Z,7.20
2023-04-21T15:54:13.365Z,5.50
2023-04-21T15:56:39.946Z,5.60
2023-04-21T15:59:07.059Z,4.40
2023-04-21T16:01:33.684Z,5.00
2023-04-21T16:04:00.981Z,3.90
2023-04-21T16:06:30.320Z,5.80
2023-04-21T16:08:57.230Z,6.30
2023-04-21T16:11:25.110Z,4.60
2023-04-21T16:13:51.818Z,4.30
2023-04-21T16:16:18.390Z,7.10
2023-04-21T16:18:45.190Z,8.00
2023-04-21T16:21:11.694Z,6.70
2023-04-21T16:23:38.350Z,14.10
2023-04-21T16:26:05.692Z,4.60
2023-04-21T16:28:32.266Z,3.90
2023-04-21T16:30:58.793Z,9.30
2023-04-21T16:33:25.518Z,5.90
2023-04-21T16:35:52.010Z,10.70
2023-04-21T16:38:18.606Z,10.70
2023-04-21T16:40:45.233Z,6.40
2023-04-21T16:43:11.677Z,7.90
2023-04-21T16:45:38.290Z,6.10
2023-04-21T16:48:05.153Z,7.50
2023-04-21T16:50:31.726Z,11.40
2023-04-21T16:52:58.235Z,13.30
2023-04-21T16:55:24.777Z,3.50
2023-04-21T16:57:51.367Z,4.10
2023-04-21T17:00:17.988Z,9.70
2023-04-21T17:02:44.843Z,10.00
2023-04-21T17:05:11.639Z,5.70
2023-04-21T17:07:39.343Z,12.20
2023-04-21T17:10:06.717Z,8.30
2023-04-21T17:12:33.412Z,7.60
2023-04-21T17:15:00.068Z,6.10
2023-04-21T17:17:26.763Z,12.50
2023-04-21T17:19:53.774Z,9.80
2023-04-21T17:22:20.413Z,12.60
2023-04-21T17:24:53.215Z,20.20
2023-04-21T17:27:20.446Z,11.70
2023-04-21T17:29:46.990Z,10.70
2023-04-21T17:32:13.740Z,7.50
2023-04-21T17:34:40.411Z,7.00
2023-04-21T17:37:07.103Z,6.40
2023-04-21T17:39:33.699Z,8.80
2023-04-21T17:42:01.786Z,7.20
2023-04-21T17:44:28.332Z,6.00
2023-04-21T17:46:55.224Z,7.40
2023-04-21T17:49:24.108Z,8.40
2023-04-21T17:51:50.894Z,10.50
2023-04-21T17:54:17.551Z,13.20
2023-04-21T17:56:45.470Z,8.70
2023-04-21T17:59:12.019Z,12.20
2023-04-21T18:01:38.515Z,15.10
2023-04-21T18:04:05.417Z,18.90
2023-04-21T18:06:32.139Z,25.40
2023-04-21T18:08:58.712Z,36.90
2023-04-21T18:11:25.608Z,54.20
2023-04-21T18:13:52.474Z,56.90
2023-04-21T18:16:19.012Z,53.00
2023-04-21T18:18:46.885Z,48.70
2023-04-21T18:21:13.950Z,69.40
2023-04-21T18:23:40.628Z,76.30
2023-04-21T18:26:07.777Z,77.00
2023-04-21T18:28:34.244Z,62.00
2023-04-21T18:31:01.110Z,95.40
2023-04-21T18:33:28.228Z,39.30
2023-04-21T18:35:54.949Z,26.80
2023-04-21T18:38:21.460Z,29.30
2023-04-21T18:40:48.540Z,34.60
2023-04-21T18:43:15.212Z,37.70
2023-04-21T18:45:41.893Z,39.20
2023-04-21T18:48:08.637Z,28.90
2023-04-21T18:50:38.936Z,26.40
2023-04-21T18:53:06.824Z,35.80
2023-04-21T18:55:35.219Z,37.30
2023-04-21T18:58:01.720Z,42.00
2023-04-21T19:00:29.152Z,39.60
2023-04-21T19:02:56.096Z,38.00
2023-04-21T19:05:22.862Z,36.10
2023-04-21T19:07:49.430Z,42.80
2023-04-21T19:10:16.202Z,37.80
2023-04-21T19:12:43.140Z,40.80
2023-04-21T19:15:09.950Z,44.20
2023-04-21T19:17:36.630Z,46.60
2023-04-21T19:20:03.248Z,41.30
2023-04-21T19:22:31.307Z,48.30
2023-04-21T19:24:58.002Z,64.40
2023-04-21T19:27:24.644Z,79.50
2023-04-21T19:29:51.241Z,134.70
2023-04-21T19:32:18.113Z,175.50
2023-04-21T19:34:44.732Z,274.40
2023-04-21T19:37:12.712Z,192.80
2023-04-21T19:39:39.432Z,133.20
2023-04-21T19:42:05.964Z,106.30
2023-04-21T19:44:32.495Z,84.60
2023-04-21T19:46:59.221Z,88.10
2023-04-21T19:49:25.850Z,96.90
2023-04-21T19:51:52.450Z,77.10
2023-04-21T19:54:19.359Z,66.70
2023-04-21T19:56:46.118Z,78.00
2023-04-21T19:59:12.864Z,69.90
2023-04-21T20:01:39.510Z,63.70
2023-04-21T20:04:06.911Z,61.30
2023-04-21T20:06:33.756Z,65.50
2023-04-21T20:09:05.050Z,53.60
2023-04-21T20:11:32.860Z,47.10
2023-04-21T20:13:59.567Z,45.00
2023-04-21T20:16:26.539Z,47.00
2023-04-21T20:18:53.580Z,49.20
2023-04-21T20:21:20.224Z,64.60
2023-04-21T20:23:46.823Z,73.20
2023-04-21T20:26:13.414Z,67.20
2023-04-21T20:28:39.979Z,61.00
2023-04-21T20:31:06.604Z,52.20
2023-04-21T20:33:33.267Z,51.80
2023-04-21T20:36:06.575Z,56.70
2023-04-21T20:38:37.747Z,52.60
2023-04-21T20:41:04.257Z,51.70
2023-04-21T20:43:33.955Z,51.90
2023-04-21T20:46:03.754Z,45.00
2023-04-21T20:48:30.392Z,55.70
2023-04-21T20:50:57.263Z,60.80
2023-04-21T20:53:23.939Z,72.30
2023-04-21T20:55:50.799Z,60.00
2023-04-21T20:58:17.484Z,56.70
2023-04-21T21:00:44.114Z,51.70
2023-04-21T21:03:11.187Z,58.90
2023-04-21T21:05:38.212Z,62.80
2023-04-21T21:08:04.846Z,79.80
2023-04-21T21:10:31.472Z,93.50
2023-04-21T21:12:58.834Z,53.10
2023-04-21T21:15:30.143Z,38.50
2023-04-21T21:17:56.880Z,30.10
2023-04-21T21:20:23.366Z,30.50
2023-04-21T21:22:50.168Z,32.50
2023-04-21T21:25:16.922Z,33.40
2023-04-21T21:27:43.455Z,36.50
2023-04-21T21:30:10.146Z,29.10
2023-04-21T21:32:36.908Z,23.70
2023-04-21T21:35:03.577Z,29.80
2023-04-21T21:37:30.214Z,27.00
2023-04-21T21:39:57.244Z,32.90
2023-04-21T21:42:23.917Z,39.80
2023-04-21T21:44:50.567Z,35.70
2023-04-21T21:47:17.660Z,35.50
2023-04-21T21:49:44.219Z,36.50
2023-04-21T21:52:10.800Z,32.60
2023-04-21T21:54:37.415Z,28.40
2023-04-21T21:57:06.569Z,26.40
2023-04-21T21:59:33.036Z,25.30
2023-04-21T22:01:59.744Z,29.70
2023-04-21T22:04:26.296Z,32.30
2023-04-21T22:06:52.838Z,32.90
2023-04-21T22:09:20.299Z,30.80
2023-04-21T22:11:46.784Z,35.20
2023-04-21T22:14:22.703Z,30.50
2023-04-21T22:16:52.058Z,30.50
2023-04-21T22:19:18.625Z,27.40
2023-04-21T22:21:45.189Z,30.70
2023-04-21T22:24:11.631Z,33.00
2023-04-21T22:26:38.212Z,25.00
2023-04-21T22:29:04.837Z,28.40
2023-04-21T22:31:31.401Z,25.10
2023-04-21T22:33:57.988Z,25.20
2023-04-21T22:36:24.636Z,21.00
2023-04-21T22:38:51.611Z,22.90
2023-04-21T22:41:18.175Z,24.90
2023-04-21T22:43:44.658Z,20.10
2023-04-21T22:46:11.573Z,25.30
2023-04-21T22:48:38.019Z,25.80
2023-04-21T22:51:05.686Z,26.50
2023-04-21T22:53:32.818Z,25.10
2023-04-21T22:55:59.377Z,25.50
2023-04-21T22:58:26.121Z,23.40
2023-04-21T23:00:52.714Z,21.00
2023-04-21T23:03:19.570Z,21.90
2023-04-21T23:05:46.140Z,25.90
2023-04-21T23:08:12.742Z,23.90
2023-04-21T23:10:39.597Z,24.20
2023-04-21T23:13:06.168Z,25.30
2023-04-21T23:15:32.805Z,23.50
2023-04-21T23:17:59.327Z,26.20
2023-04-21T23:20:26.351Z,25.20
2023-04-21T23:22:53.338Z,21.10
2023-04-21T23:25:20.142Z,22.60
2023-04-21T23:27:46.680Z,22.40
2023-04-21T23:30:13.534Z,20.40
2023-04-21T23:32:40.674Z,20.20
2023-04-21T23:35:07.461Z,21.30
2023-04-21T23:37:34.032Z,22.40
2023-04-21T23:40:00.856Z,24.60
2023-04-21T23:42:27.415Z,23.00
2023-04-21T23:44:53.858Z,23.10
2023-04-21T23:47:20.773Z,20.90
2023-04-21T23:49:47.288Z,20.60
2023-04-21T23:52:14.316Z,22.60
2023-04-21T23:54:40.809Z,20.80
2023-04-21T23:57:07.415Z,17.70
2023-04-21T23:59:33.968Z,22.70
